Socorro, New Mexico
Current Conditions -  °F | °C
As of 3:35 AM on Thursday 27 Nov 2014 (Local Time) from KONM Reporting Station
Clear Clear  
Wind Chill: 32°   Ceiling: Unl
Heat Index: 37°   Visibility: 10mi
Dew Point: 20°   Wind: 7mph
Humidity: 50%   Direction: 360°N
Pressure: 30.42"   Gusts: NA
Location:  34.06°N, 106.89°W
Report Text: KONM 271035Z AUTO 36006KT 10SM CLR 03/M06 A3042 RMK AO2 T00291065
Loading
Personal Weather Stations






























Interactive Weather Map New forecast layout! Learn more

10-Day Weather Forecast

Advertisements
Track Severe Weather on mobile